createdAt,value
2023-05-05T00:02:19.449Z,101299.50
2023-05-05T00:04:47.704Z,101308.16
2023-05-05T00:07:17.102Z,101301.72
2023-05-05T00:09:45.135Z,101297.53
2023-05-05T00:12:13.138Z,101296.72
2023-05-05T00:14:41.134Z,101295.94
2023-05-05T00:17:09.177Z,101293.84
2023-05-05T00:19:37.159Z,101288.13
2023-05-05T00:22:05.210Z,101289.41
2023-05-05T00:24:34.548Z,101290.97
2023-05-05T00:27:03.558Z,101280.88
2023-05-05T00:30:22.015Z,101278.38
2023-05-05T00:32:50.801Z,101280.34
2023-05-05T00:35:19.402Z,101276.78
2023-05-05T00:37:47.657Z,101277.25
2023-05-05T00:40:18.435Z,101275.56
2023-05-05T00:42:47.925Z,101274.06
2023-05-05T00:45:17.017Z,101268.47
2023-05-05T00:47:47.578Z,101283.13
2023-05-05T00:50:24.020Z,101287.72
2023-05-05T00:52:54.067Z,101284.00
2023-05-05T00:55:23.890Z,101267.63
2023-05-05T00:57:52.327Z,101283.59
2023-05-05T01:00:20.374Z,101283.84
2023-05-05T01:02:48.447Z,101283.44
2023-05-05T01:05:17.418Z,101288.31
2023-05-05T01:07:57.050Z,101279.56
2023-05-05T01:10:37.125Z,101287.97
2023-05-05T01:13:17.733Z,101275.25
2023-05-05T01:15:51.667Z,101282.50
2023-05-05T01:18:31.795Z,101284.25
2023-05-05T01:21:06.285Z,101280.09
2023-05-05T01:24:11.964Z,101280.75
2023-05-05T01:26:53.868Z,101276.38
2023-05-05T01:29:35.737Z,101279.31
2023-05-05T01:32:10.697Z,101288.09
2023-05-05T01:34:45.348Z,101292.34
2023-05-05T01:37:19.516Z,101295.66
2023-05-05T01:39:53.281Z,101304.91
2023-05-05T01:42:23.446Z,101287.66
2023-05-05T01:44:54.090Z,101282.66
2023-05-05T01:47:24.796Z,101283.09
2023-05-05T01:49:53.972Z,101280.00
2023-05-05T01:52:23.717Z,101283.09
2023-05-05T01:54:53.710Z,101275.84
2023-05-05T01:57:23.994Z,101276.00
2023-05-05T01:59:54.420Z,101285.28
2023-05-05T02:02:27.037Z,101276.88
2023-05-05T02:04:57.519Z,101275.66
2023-05-05T02:07:26.347Z,101277.94
2023-05-05T02:09:54.858Z,101278.69
2023-05-05T02:12:24.280Z,101282.91
2023-05-05T02:14:53.323Z,101284.78
2023-05-05T02:17:25.360Z,101285.47
2023-05-05T02:19:54.476Z,101277.72
2023-05-05T02:22:22.541Z,101274.63
2023-05-05T02:24:50.563Z,101273.63
2023-05-05T02:27:24.876Z,101281.56
2023-05-05T02:29:58.952Z,101276.34
2023-05-05T02:32:34.725Z,101277.63
2023-05-05T02:35:15.277Z,101286.47
2023-05-05T02:37:51.684Z,101283.97
2023-05-05T02:40:25.489Z,101281.91
2023-05-05T02:42:58.428Z,101281.53
2023-05-05T02:45:30.966Z,101286.75
2023-05-05T02:48:03.355Z,101286.56
2023-05-05T02:50:34.570Z,101288.06
2023-05-05T02:53:17.784Z,101285.56
2023-05-05T02:55:52.723Z,101288.72
2023-05-05T02:58:31.019Z,101285.38
2023-05-05T03:01:12.489Z,101276.84
2023-05-05T03:03:48.340Z,101291.50
2023-05-05T03:06:20.513Z,101288.78
2023-05-05T03:08:57.302Z,101279.56
2023-05-05T03:11:33.045Z,101274.50
2023-05-05T03:14:08.803Z,101286.25
2023-05-05T03:17:05.232Z,101277.63
2023-05-05T03:19:38.075Z,101285.13
2023-05-05T03:22:06.355Z,101282.19
2023-05-05T03:24:35.330Z,101279.84
2023-05-05T03:27:08.234Z,101281.03
2023-05-05T03:29:38.948Z,101277.66
2023-05-05T03:32:11.821Z,101277.66
2023-05-05T03:34:42.519Z,101275.38
2023-05-05T03:37:10.607Z,101280.56
2023-05-05T03:39:40.450Z,101280.13
2023-05-05T03:42:10.317Z,101281.56
2023-05-05T03:44:38.290Z,101283.44
2023-05-05T03:47:06.916Z,101275.78
2023-05-05T03:49:37.890Z,101274.56
2023-05-05T03:52:07.721Z,101274.28
2023-05-05T03:54:36.490Z,101269.44
2023-05-05T03:57:04.656Z,101271.13
2023-05-05T03:59:32.628Z,101267.16
2023-05-05T04:02:00.813Z,101270.22
2023-05-05T04:04:28.959Z,101268.16
2023-05-05T04:06:57.027Z,101257.88
2023-05-05T04:09:27.123Z,101271.50
2023-05-05T04:11:55.370Z,101261.06
2023-05-05T04:14:23.491Z,101270.72
2023-05-05T04:16:51.856Z,101268.81
2023-05-05T04:19:20.361Z,101276.59
2023-05-05T04:22:38.504Z,101269.44
2023-05-05T04:25:09.064Z,101270.72
2023-05-05T04:27:37.374Z,101272.16
2023-05-05T04:30:07.344Z,101275.78
2023-05-05T04:32:37.372Z,101275.34
2023-05-05T04:35:07.865Z,101283.31
2023-05-05T04:37:35.953Z,101285.03
2023-05-05T04:40:04.880Z,101287.69
2023-05-05T04:42:36.644Z,101286.88
2023-05-05T04:45:05.649Z,101284.97
2023-05-05T04:47:38.579Z,101292.94
2023-05-05T04:50:08.389Z,101287.84
2023-05-05T04:52:36.992Z,101291.13
2023-05-05T04:55:05.612Z,101290.28
2023-05-05T04:57:36.040Z,101296.25
2023-05-05T05:00:05.475Z,101294.13
2023-05-05T05:02:33.924Z,101296.41
2023-05-05T05:05:02.043Z,101294.91
2023-05-05T05:07:30.104Z,101289.75
2023-05-05T05:09:58.331Z,101295.22
2023-05-05T05:12:26.438Z,101296.00
2023-05-05T05:14:55.958Z,101293.56
2023-05-05T05:17:24.999Z,101306.91
2023-05-05T05:19:54.454Z,101303.09
2023-05-05T05:22:23.106Z,101312.44
2023-05-05T05:24:52.219Z,101304.84
2023-05-05T05:27:20.774Z,101311.16
2023-05-05T05:29:51.345Z,101310.25
2023-05-05T05:32:21.346Z,101307.44
2023-05-05T05:34:50.047Z,101314.34
2023-05-05T05:37:18.449Z,101316.03
2023-05-05T05:39:52.570Z,101313.69
2023-05-05T05:42:24.292Z,101317.63
2023-05-05T05:44:52.694Z,101307.94
2023-05-05T05:47:22.318Z,101300.13
2023-05-05T05:49:50.873Z,101302.78
2023-05-05T05:52:20.320Z,101303.47
2023-05-05T05:55:38.695Z,101307.53
2023-05-05T05:58:07.084Z,101314.84
2023-05-05T06:00:35.175Z,101315.00
2023-05-05T06:03:09.864Z,101307.84
2023-05-05T06:05:39.952Z,101313.91
2023-05-05T06:08:08.383Z,101309.66
2023-05-05T06:10:42.074Z,101309.03
2023-05-05T06:13:15.200Z,101308.28
2023-05-05T06:15:46.621Z,101307.63
2023-05-05T06:18:17.243Z,101313.28
2023-05-05T06:20:45.855Z,101312.38
2023-05-05T06:23:16.062Z,101307.66
2023-05-05T06:25:49.151Z,101307.81
2023-05-05T06:28:17.681Z,101308.13
2023-05-05T06:30:45.788Z,101311.44
2023-05-05T06:33:13.839Z,101310.94
2023-05-05T06:35:43.482Z,101315.25
2023-05-05T06:38:13.237Z,101317.50
2023-05-05T06:40:42.192Z,101321.00
2023-05-05T06:43:10.262Z,101321.00
2023-05-05T06:45:43.955Z,101320.31
2023-05-05T06:48:12.017Z,101326.72
2023-05-05T06:50:40.121Z,101325.81
2023-05-05T06:53:09.800Z,101333.75
2023-05-05T06:55:38.385Z,101341.72
2023-05-05T06:58:06.627Z,101341.88
2023-05-05T07:00:35.133Z,101345.78
2023-05-05T07:03:03.372Z,101351.63
2023-05-05T07:05:31.757Z,101346.53
2023-05-05T07:07:59.972Z,101341.41
2023-05-05T07:10:29.692Z,101356.91
2023-05-05T07:12:57.863Z,101356.03
2023-05-05T07:15:29.345Z,101363.53
2023-05-05T07:17:58.398Z,101363.41
2023-05-05T07:20:27.041Z,101354.09
2023-05-05T07:22:55.448Z,101358.88
2023-05-05T07:25:23.838Z,101359.38
2023-05-05T07:27:53.752Z,101366.09
2023-05-05T07:30:22.172Z,101362.28
2023-05-05T07:32:51.351Z,101371.09
2023-05-05T07:35:19.587Z,101364.09
2023-05-05T07:37:48.210Z,101366.81
2023-05-05T07:40:16.585Z,101370.91
2023-05-05T07:42:44.881Z,101373.50
2023-05-05T07:45:14.555Z,101373.38
2023-05-05T07:47:42.762Z,101365.44
2023-05-05T07:50:11.730Z,101368.03
2023-05-05T07:55:10.635Z,101373.31
2023-05-05T07:57:39.436Z,101371.31
2023-05-05T08:00:09.560Z,101374.13
2023-05-05T08:02:42.616Z,101378.50
2023-05-05T08:05:10.821Z,101378.72
2023-05-05T08:07:41.516Z,101385.88
2023-05-05T08:10:11.554Z,101371.66
2023-05-05T08:12:40.029Z,101372.84
2023-05-05T08:15:09.661Z,101369.16
2023-05-05T08:17:50.493Z,101365.00
2023-05-05T08:20:20.195Z,101367.22
2023-05-05T08:22:48.504Z,101363.66
2023-05-05T08:25:16.500Z,101371.66
2023-05-05T08:27:44.458Z,101360.38
2023-05-05T08:30:13.331Z,101364.88
2023-05-05T08:32:41.593Z,101371.06
2023-05-05T08:35:12.009Z,101366.78
2023-05-05T08:37:40.320Z,101356.94
2023-05-05T08:40:12.185Z,101352.88
2023-05-05T08:42:40.152Z,101357.41
2023-05-05T08:45:10.838Z,101357.16
2023-05-05T08:47:40.647Z,101365.75
2023-05-05T08:50:12.762Z,101362.72
2023-05-05T08:52:44.584Z,101362.84
2023-05-05T08:55:22.238Z,101367.00
2023-05-05T08:57:53.547Z,101365.84
2023-05-05T09:00:22.278Z,101359.72
2023-05-05T09:02:50.922Z,101361.34
2023-05-05T09:05:20.606Z,101360.72
2023-05-05T09:07:48.960Z,101360.44
2023-05-05T09:10:17.002Z,101358.53
2023-05-05T09:12:45.603Z,101363.69
2023-05-05T09:16:28.811Z,101372.16
2023-05-05T09:19:04.326Z,101366.22
2023-05-05T09:21:33.784Z,101367.69
2023-05-05T09:24:08.381Z,101371.16
2023-05-05T09:26:38.085Z,101378.16
2023-05-05T09:29:06.945Z,101381.75
2023-05-05T09:31:37.056Z,101371.09
2023-05-05T09:34:36.514Z,101376.56
2023-05-05T09:37:06.492Z,101377.38
2023-05-05T09:39:34.674Z,101367.19
2023-05-05T09:42:03.846Z,101363.34
2023-05-05T09:44:36.031Z,101373.84
2023-05-05T09:47:07.344Z,101375.91
2023-05-05T09:49:40.562Z,101367.09
2023-05-05T09:52:16.104Z,101370.50
2023-05-05T09:54:45.528Z,101370.28
2023-05-05T09:57:29.804Z,101360.75
2023-05-05T10:00:02.281Z,101360.50
2023-05-05T10:02:36.551Z,101360.91
2023-05-05T10:05:10.385Z,101356.84
2023-05-05T10:07:41.401Z,101348.38
2023-05-05T10:10:12.382Z,101350.38
2023-05-05T10:12:45.258Z,101358.63
2023-05-05T10:15:17.755Z,101356.84
2023-05-05T10:18:05.103Z,101352.97
2023-05-05T10:20:41.948Z,101358.75
2023-05-05T10:23:37.683Z,101352.19
2023-05-05T10:26:08.858Z,101347.50
2023-05-05T10:28:49.270Z,101336.75
2023-05-05T10:31:29.238Z,101324.88
2023-05-05T10:34:05.120Z,101329.16
2023-05-05T10:36:35.253Z,101326.69
2023-05-05T10:39:10.919Z,101330.94
2023-05-05T10:41:39.705Z,101328.25
2023-05-05T10:44:10.599Z,101335.63
2023-05-05T10:46:39.697Z,101338.50
2023-05-05T10:49:17.315Z,101339.94
2023-05-05T10:51:51.452Z,101337.75
2023-05-05T10:54:29.441Z,101350.94
2023-05-05T10:56:59.080Z,101344.56
2023-05-05T10:59:53.363Z,101344.66
2023-05-05T11:02:26.110Z,101349.91
2023-05-05T11:05:17.943Z,101339.97
2023-05-05T11:07:47.172Z,101335.69
2023-05-05T11:10:17.778Z,101339.63
2023-05-05T11:13:21.104Z,101323.22
2023-05-05T11:15:50.725Z,101324.25
2023-05-05T11:18:35.845Z,101329.66
2023-05-05T11:21:07.525Z,101326.69
2023-05-05T11:23:35.888Z,101313.50
2023-05-05T11:26:05.262Z,101309.19
2023-05-05T11:28:33.401Z,101310.75
2023-05-05T11:31:18.751Z,101311.69
2023-05-05T11:33:47.037Z,101307.75
2023-05-05T11:36:16.496Z,101301.97
2023-05-05T11:39:05.028Z,101315.31
2023-05-05T11:42:19.612Z,101316.47
2023-05-05T11:44:50.292Z,101319.78
2023-05-05T11:47:39.594Z,101312.34
2023-05-05T11:50:19.108Z,101309.78
2023-05-05T11:52:48.238Z,101302.00
2023-05-05T11:55:22.229Z,101311.09
2023-05-05T11:57:51.681Z,101301.31
2023-05-05T12:00:20.598Z,101305.34
2023-05-05T12:02:57.547Z,101296.59
2023-05-05T12:05:25.958Z,101296.38
2023-05-05T12:07:58.683Z,101295.50
2023-05-05T12:10:26.967Z,101287.13
2023-05-05T12:12:56.433Z,101283.78
2023-05-05T12:15:34.413Z,101285.00
2023-05-05T12:18:03.280Z,101272.34
2023-05-05T12:20:33.351Z,101283.94
2023-05-05T12:23:02.819Z,101284.28
2023-05-05T12:25:38.430Z,101278.53
2023-05-05T12:28:08.817Z,101284.25
2023-05-05T12:31:54.200Z,101283.69
2023-05-05T12:34:23.128Z,101289.09
2023-05-05T12:36:51.422Z,101285.34
2023-05-05T12:39:19.353Z,101277.38
2023-05-05T12:41:47.782Z,101277.16
2023-05-05T12:44:17.135Z,101271.25
2023-05-05T12:46:46.546Z,101266.88
2023-05-05T12:49:14.503Z,101275.59
2023-05-05T12:51:54.431Z,101268.94
2023-05-05T12:54:23.789Z,101271.81
2023-05-05T12:56:51.939Z,101262.50
2023-05-05T12:59:33.469Z,101258.06
2023-05-05T13:02:02.245Z,101256.91
2023-05-05T13:04:30.638Z,101257.81
2023-05-05T13:07:13.023Z,101244.34
2023-05-05T13:09:41.127Z,101247.59
2023-05-05T13:12:12.070Z,101246.81
2023-05-05T13:14:42.426Z,101255.03
2023-05-05T13:17:10.981Z,101250.13
2023-05-05T13:19:45.958Z,101248.19
2023-05-05T13:22:14.228Z,101247.56
2023-05-05T13:24:51.641Z,101254.16
2023-05-05T13:27:21.029Z,101244.78
2023-05-05T13:29:50.728Z,101249.47
2023-05-05T13:32:18.700Z,101247.59
2023-05-05T13:34:46.856Z,101245.91
2023-05-05T13:37:14.966Z,101243.16
2023-05-05T13:39:42.941Z,101256.41
2023-05-05T13:42:10.941Z,101242.63
2023-05-05T13:44:39.383Z,101257.75
2023-05-05T13:47:08.858Z,101245.03
2023-05-05T13:49:36.933Z,101247.00
2023-05-05T13:52:04.988Z,101242.06
2023-05-05T13:54:33.174Z,101245.94
2023-05-05T13:57:01.154Z,101227.19
2023-05-05T13:59:30.058Z,101238.78
2023-05-05T14:01:58.107Z,101241.00
2023-05-05T14:04:27.706Z,101233.84
2023-05-05T14:06:58.215Z,101235.75
2023-05-05T14:09:26.735Z,101247.34
2023-05-05T14:11:55.215Z,101246.50
2023-05-05T14:14:23.183Z,101242.13
2023-05-05T14:16:52.183Z,101238.19
2023-05-05T14:19:20.498Z,101234.34
2023-05-05T14:21:49.977Z,101226.81
2023-05-05T14:24:18.091Z,101225.44
2023-05-05T14:26:46.018Z,101221.09
2023-05-05T14:29:14.027Z,101236.81
2023-05-05T14:31:42.129Z,101228.44
2023-05-05T14:34:10.122Z,101229.28
2023-05-05T14:36:38.205Z,101239.72
2023-05-05T14:39:08.171Z,101233.66
2023-05-05T14:41:36.145Z,101229.25
2023-05-05T14:44:04.197Z,101222.09
2023-05-05T14:46:32.731Z,101226.56
2023-05-05T14:49:00.951Z,101215.75
2023-05-05T14:51:28.991Z,101205.34
2023-05-05T14:53:57.154Z,101206.44
2023-05-05T14:56:26.781Z,101213.88
2023-05-05T14:58:54.952Z,101213.38
2023-05-05T15:01:24.909Z,101213.38
2023-05-05T15:03:53.959Z,101208.19
2023-05-05T15:06:25.152Z,101208.44
2023-05-05T15:08:53.545Z,101206.78
2023-05-05T15:11:22.074Z,101209.22
2023-05-05T15:13:51.751Z,101205.13
2023-05-05T15:16:19.889Z,101209.78
2023-05-05T15:18:48.027Z,101217.50
2023-05-05T15:21:16.151Z,101209.53
2023-05-05T15:23:44.416Z,101204.03
2023-05-05T15:26:12.556Z,101206.47
2023-05-05T15:28:41.252Z,101206.16
2023-05-05T15:31:10.714Z,101212.22
2023-05-05T15:33:39.345Z,101209.41
2023-05-05T15:36:07.985Z,101204.97
2023-05-05T15:38:43.294Z,101208.03
2023-05-05T15:41:11.523Z,101206.38
2023-05-05T15:43:39.708Z,101206.38
2023-05-05T15:46:07.770Z,101200.50
2023-05-05T15:48:37.217Z,101205.25
2023-05-05T15:51:08.932Z,101202.28
2023-05-05T15:53:37.212Z,101200.66
2023-05-05T15:56:05.484Z,101203.06
2023-05-05T15:58:33.536Z,101205.25
2023-05-05T16:01:01.679Z,101198.72
2023-05-05T16:03:29.718Z,101220.47
2023-05-05T16:05:59.293Z,101202.88
2023-05-05T16:08:27.414Z,101198.50
2023-05-05T16:10:55.377Z,101212.84
2023-05-05T16:13:23.418Z,101214.41
2023-05-05T16:15:51.410Z,101210.03
2023-05-05T16:18:19.423Z,101222.06
2023-05-05T16:20:47.467Z,101211.28
2023-05-05T16:23:16.890Z,101215.72
2023-05-05T16:25:45.063Z,101215.63
2023-05-05T16:28:13.141Z,101215.66
2023-05-05T16:30:42.853Z,101221.19
2023-05-05T16:33:10.954Z,101218.97
2023-05-05T16:35:39.032Z,101223.03
2023-05-05T16:38:07.003Z,101234.81
2023-05-05T16:40:37.738Z,101227.47
2023-05-05T16:43:05.862Z,101222.84
2023-05-05T16:45:34.253Z,101226.38
2023-05-05T16:49:17.589Z,101231.06
2023-05-05T16:51:46.037Z,101230.81
2023-05-05T16:54:14.379Z,101236.34
2023-05-05T16:56:43.987Z,101232.47
2023-05-05T16:59:20.948Z,101234.44
2023-05-05T17:01:49.317Z,101227.81
2023-05-05T17:04:17.507Z,101221.72
2023-05-05T17:06:46.014Z,101226.13
2023-05-05T17:09:14.040Z,101233.50
2023-05-05T17:11:43.658Z,101225.69
2023-05-05T17:14:11.806Z,101228.19
2023-05-05T17:16:40.013Z,101224.53
2023-05-05T17:19:08.145Z,101220.91
2023-05-05T17:21:36.315Z,101224.09
2023-05-05T17:24:04.465Z,101221.44
2023-05-05T17:26:32.789Z,101221.28
2023-05-05T17:29:02.782Z,101216.34
2023-05-05T17:31:32.850Z,101224.63
2023-05-05T17:34:01.150Z,101215.16
2023-05-05T17:36:55.068Z,101219.41
2023-05-05T17:39:23.221Z,101220.56
2023-05-05T17:41:51.339Z,101219.03
2023-05-05T17:44:20.905Z,101218.53
2023-05-05T17:46:49.005Z,101223.44
2023-05-05T17:49:17.398Z,101229.94
2023-05-05T17:51:45.679Z,101241.72
2023-05-05T17:54:13.650Z,101227.47
2023-05-05T17:56:42.357Z,101220.81
2023-05-05T17:59:10.410Z,101241.09
2023-05-05T18:01:41.535Z,101238.88
2023-05-05T18:04:09.699Z,101230.50
2023-05-05T18:06:37.694Z,101245.56
2023-05-05T18:09:05.778Z,101242.97
2023-05-05T18:11:34.040Z,101241.00
2023-05-05T18:14:02.064Z,101242.75
2023-05-05T18:16:30.007Z,101257.28
2023-05-05T18:18:59.331Z,101248.78
2023-05-05T18:21:27.360Z,101254.38
2023-05-05T18:23:59.504Z,101262.91
2023-05-05T18:26:36.222Z,101260.72
2023-05-05T18:29:04.269Z,101260.72
2023-05-05T18:31:32.320Z,101269.63
2023-05-05T18:34:01.857Z,101272.41
2023-05-05T18:36:30.072Z,101276.56
2023-05-05T18:38:58.046Z,101276.66
2023-05-05T18:41:26.758Z,101283.00
2023-05-05T18:43:54.826Z,101275.84
2023-05-05T18:46:23.151Z,101287.66
2023-05-05T18:48:51.215Z,101293.00
2023-05-05T18:51:20.565Z,101292.56
2023-05-05T18:53:48.782Z,101289.28
2023-05-05T18:56:17.120Z,101291.91
2023-05-05T18:58:45.387Z,101294.72
2023-05-05T19:01:13.401Z,101297.91
2023-05-05T19:03:41.554Z,101309.19
2023-05-05T19:06:09.636Z,101307.41
2023-05-05T19:08:39.061Z,101301.88
2023-05-05T19:11:07.088Z,101304.97
2023-05-05T19:13:35.214Z,101310.13
2023-05-05T19:16:03.524Z,101305.66
2023-05-05T19:18:31.677Z,101315.59
2023-05-05T19:20:59.653Z,101315.41
2023-05-05T19:23:27.641Z,101324.09
2023-05-05T19:25:56.990Z,101324.06
2023-05-05T19:28:25.192Z,101328.78
2023-05-05T19:30:53.436Z,101325.84
2023-05-05T19:33:21.498Z,101332.13
2023-05-05T19:35:49.602Z,101336.88
2023-05-05T19:38:21.337Z,101342.88
2023-05-05T19:40:49.598Z,101340.94
2023-05-05T19:43:19.044Z,101340.44
2023-05-05T19:45:47.127Z,101341.38
2023-05-05T19:48:15.777Z,101358.00
2023-05-05T19:50:43.847Z,101349.38
2023-05-05T19:53:11.953Z,101355.88
2023-05-05T19:55:39.915Z,101349.28
2023-05-05T19:58:07.951Z,101361.25
2023-05-05T20:00:37.332Z,101355.72
2023-05-05T20:03:05.509Z,101360.38
2023-05-05T20:05:33.630Z,101359.06
2023-05-05T20:08:03.757Z,101363.28
2023-05-05T20:10:31.750Z,101359.84
2023-05-05T20:12:59.995Z,101364.25
2023-05-05T20:15:28.197Z,101363.09
2023-05-05T20:17:57.599Z,101359.28
2023-05-05T20:20:25.573Z,101359.94
2023-05-05T20:22:53.613Z,101372.97
2023-05-05T20:25:21.708Z,101365.78
2023-05-05T20:27:49.802Z,101366.53
2023-05-05T20:30:17.968Z,101370.94
2023-05-05T20:32:46.147Z,101372.38
2023-05-05T20:35:15.833Z,101370.00
2023-05-05T20:37:45.034Z,101371.88
2023-05-05T20:40:14.069Z,101372.47
2023-05-05T20:42:42.040Z,101370.00
2023-05-05T20:45:11.923Z,101373.94
2023-05-05T20:47:40.075Z,101380.72
2023-05-05T20:50:09.346Z,101375.59
2023-05-05T20:52:38.980Z,101373.78
2023-05-05T20:55:07.751Z,101371.38
2023-05-05T20:57:35.750Z,101372.59
2023-05-05T21:00:04.317Z,101379.59
2023-05-05T21:02:33.549Z,101382.09
2023-05-05T21:05:03.018Z,101375.44
2023-05-05T21:07:34.339Z,101383.28
2023-05-05T21:10:04.312Z,101373.06
2023-05-05T21:12:34.512Z,101371.16
2023-05-05T21:15:02.543Z,101372.31
2023-05-05T21:17:31.839Z,101369.22
2023-05-05T21:24:51.581Z,101366.09
2023-05-05T21:27:21.539Z,101369.88
2023-05-05T21:29:51.591Z,101371.09
2023-05-05T21:32:19.749Z,101373.78
2023-05-05T21:34:47.852Z,101373.63
2023-05-05T21:37:16.140Z,101377.19
2023-05-05T21:39:44.694Z,101371.91
2023-05-05T21:42:12.693Z,101376.06
2023-05-05T21:44:42.091Z,101373.56
2023-05-05T21:47:10.887Z,101378.31
2023-05-05T21:49:38.843Z,101373.75
2023-05-05T21:52:06.826Z,101381.88
2023-05-05T21:54:34.780Z,101390.22
2023-05-05T21:57:02.908Z,101391.06
2023-05-05T21:59:30.971Z,101380.22
2023-05-05T22:02:00.764Z,101382.72
2023-05-05T22:04:28.754Z,101384.16
2023-05-05T22:06:56.828Z,101378.78
2023-05-05T22:09:51.838Z,101384.94
2023-05-05T22:12:19.969Z,101378.94
2023-05-05T22:14:47.966Z,101379.00
2023-05-05T22:17:17.386Z,101376.22
2023-05-05T22:19:45.390Z,101381.38
2023-05-05T22:22:13.364Z,101379.94
2023-05-05T22:24:41.484Z,101377.19
2023-05-05T22:27:09.485Z,101379.25
2023-05-05T22:29:38.936Z,101380.84
2023-05-05T22:32:07.547Z,101376.69
2023-05-05T22:34:37.096Z,101372.88
2023-05-05T22:37:05.062Z,101375.47
2023-05-05T22:39:33.321Z,101382.13
2023-05-05T22:42:01.824Z,101375.75
2023-05-05T22:44:29.906Z,101378.19
2023-05-05T22:46:58.670Z,101370.91
2023-05-05T22:49:27.697Z,101377.56
2023-05-05T22:51:57.870Z,101378.94
2023-05-05T22:54:26.055Z,101376.06
2023-05-05T22:56:54.084Z,101374.72
2023-05-05T22:59:22.188Z,101375.31
2023-05-05T23:01:50.325Z,101379.72
2023-05-05T23:04:18.381Z,101378.25
2023-05-05T23:06:46.347Z,101382.28
2023-05-05T23:09:15.693Z,101372.03
2023-05-05T23:11:43.661Z,101385.91
2023-05-05T23:14:11.602Z,101383.66
2023-05-05T23:16:39.682Z,101379.22
2023-05-05T23:19:07.676Z,101383.03
2023-05-05T23:21:45.438Z,101374.22
2023-05-05T23:24:21.903Z,101372.16
2023-05-05T23:26:49.991Z,101370.13
2023-05-05T23:29:17.995Z,101370.13
2023-05-05T23:31:46.954Z,101369.94
2023-05-05T23:34:15.290Z,101368.50
2023-05-05T23:36:43.554Z,101357.22
2023-05-05T23:39:11.518Z,101363.31
2023-05-05T23:41:41.025Z,101364.81
2023-05-05T23:44:09.116Z,101362.53
2023-05-05T23:46:37.192Z,101364.88
2023-05-05T23:49:05.184Z,101359.28
2023-05-05T23:51:33.279Z,101370.38
2023-05-05T23:54:01.301Z,101360.63
2023-05-05T23:56:29.324Z,101365.44
2023-05-05T23:58:58.757Z,101358.75
